createdAt,value
2019-02-28T00:02:27.776Z,88.53
2019-02-28T00:04:59.504Z,88.53
2019-02-28T00:07:31.236Z,89.64
2019-02-28T00:10:02.850Z,89.41
2019-02-28T00:12:35.924Z,88.60
2019-02-28T00:15:07.788Z,89.31
2019-02-28T00:17:42.701Z,89.31
2019-02-28T00:20:12.892Z,88.72
2019-02-28T00:22:48.428Z,88.99
2019-02-28T00:25:17.691Z,88.99
2019-02-28T00:27:53.459Z,89.08
2019-02-28T00:30:25.507Z,89.04
2019-02-28T00:32:59.366Z,89.13
2019-02-28T00:35:30.498Z,89.57
2019-02-28T00:38:02.148Z,89.06
2019-02-28T00:40:34.786Z,89.69
2019-02-28T00:43:06.311Z,89.69
2019-02-28T00:45:40.016Z,90.71
2019-02-28T00:48:12.439Z,90.15
2019-02-28T00:50:44.230Z,90.15
2019-02-28T00:53:15.765Z,90.71
2019-02-28T00:55:47.653Z,90.71
2019-02-28T00:58:20.507Z,91.67
2019-02-28T01:00:52.199Z,91.26
2019-02-28T01:03:27.407Z,90.66
2019-02-28T01:05:58.314Z,90.30
2019-02-28T01:08:30.260Z,89.60
2019-02-28T01:11:02.433Z,89.60
2019-02-28T01:13:34.148Z,89.60
2019-02-28T01:16:05.525Z,89.28
2019-02-28T01:18:37.217Z,89.95
2019-02-28T01:21:09.049Z,89.69
2019-02-28T01:23:41.628Z,89.44
2019-02-28T01:26:13.201Z,89.44
2019-02-28T01:28:44.897Z,88.75
2019-02-28T01:31:16.715Z,88.40
2019-02-28T01:33:56.064Z,88.40
2019-02-28T01:36:26.599Z,73.81
2019-02-28T01:38:58.866Z,71.72
2019-02-28T01:41:30.989Z,71.72
2019-02-28T01:44:02.843Z,71.30
2019-02-28T01:46:34.676Z,71.30
2019-02-28T01:49:07.742Z,71.89
2019-02-28T01:51:39.245Z,71.89
2019-02-28T01:54:10.617Z,71.51
2019-02-28T01:56:42.186Z,71.15
2019-02-28T01:59:14.848Z,71.15
2019-02-28T02:01:46.560Z,70.91
2019-02-28T02:04:17.849Z,70.41
2019-02-28T02:06:49.582Z,70.59
2019-02-28T02:09:21.375Z,70.59
2019-02-28T02:11:53.091Z,70.37
2019-02-28T02:14:24.797Z,70.03
2019-02-28T02:16:58.282Z,70.04
2019-02-28T02:19:30.096Z,70.00
2019-02-28T02:22:01.897Z,69.94
2019-02-28T02:24:34.653Z,70.91
2019-02-28T02:27:06.153Z,70.93
2019-02-28T02:29:37.695Z,70.93
2019-02-28T02:32:09.307Z,70.98
2019-02-28T02:34:40.774Z,71.46
2019-02-28T02:37:12.593Z,71.12
2019-02-28T02:39:44.117Z,71.12
2019-02-28T02:42:17.907Z,69.68
2019-02-28T02:44:49.480Z,69.52
2019-02-28T02:47:21.433Z,69.73
2019-02-28T02:49:57.535Z,69.73
2019-02-28T02:52:30.438Z,70.26
2019-02-28T02:55:02.688Z,70.09
2019-02-28T02:57:33.928Z,70.09
2019-02-28T03:00:13.188Z,71.10
2019-02-28T03:02:40.752Z,71.10
2019-02-28T03:05:12.452Z,71.62
2019-02-28T03:07:44.210Z,70.98
2019-02-28T03:10:19.157Z,70.65
2019-02-28T03:12:49.775Z,70.43
2019-02-28T03:15:25.922Z,71.03
2019-02-28T03:17:54.665Z,70.84
2019-02-28T03:20:26.142Z,71.31
2019-02-28T03:23:02.222Z,71.31
2019-02-28T03:25:30.960Z,70.36
2019-02-28T03:28:02.684Z,70.36
2019-02-28T03:30:34.358Z,70.92
2019-02-28T03:33:05.531Z,71.32
2019-02-28T03:35:43.107Z,71.29
2019-02-28T03:38:11.618Z,71.68
2019-02-28T03:40:43.704Z,71.12
2019-02-28T03:43:15.431Z,71.12
2019-02-28T03:45:47.042Z,70.94
2019-02-28T03:48:18.486Z,70.70
2019-02-28T03:50:50.216Z,70.70
2019-02-28T03:53:22.259Z,70.23
2019-02-28T03:55:54.075Z,70.23
2019-02-28T03:58:26.329Z,69.94
2019-02-28T04:00:58.117Z,69.74
2019-02-28T04:03:33.318Z,69.81
2019-02-28T04:06:04.809Z,70.96
2019-02-28T04:08:36.632Z,70.32
2019-02-28T04:11:08.163Z,70.35
2019-02-28T04:13:40.259Z,70.85
2019-02-28T04:16:11.876Z,71.16
2019-02-28T04:18:46.275Z,71.49
2019-02-28T04:21:16.657Z,71.32
2019-02-28T04:23:48.109Z,70.62
2019-02-28T04:26:19.763Z,70.20
2019-02-28T04:28:54.712Z,70.16
2019-02-28T04:31:25.728Z,69.47
2019-02-28T04:33:57.433Z,70.06
2019-02-28T04:36:35.448Z,70.57
2019-02-28T04:39:06.420Z,69.78
2019-02-28T04:41:38.220Z,68.00
2019-02-28T04:44:09.791Z,68.00
2019-02-28T04:46:41.466Z,68.36
2019-02-28T04:49:13.220Z,68.36
2019-02-28T04:51:44.760Z,68.52
2019-02-28T04:54:16.289Z,67.23
2019-02-28T04:56:47.999Z,66.25
2019-02-28T04:59:19.716Z,66.44
2019-02-28T05:01:51.430Z,65.89
2019-02-28T05:04:23.264Z,66.60
2019-02-28T05:06:55.234Z,66.51
2019-02-28T05:09:27.569Z,66.51
2019-02-28T05:11:59.041Z,65.41
2019-02-28T05:14:31.027Z,64.60
2019-02-28T05:17:02.902Z,65.58
2019-02-28T05:19:35.850Z,65.30
2019-02-28T05:22:11.272Z,66.09
2019-02-28T05:24:43.754Z,66.09
2019-02-28T05:27:15.570Z,66.05
2019-02-28T05:29:46.885Z,66.05
2019-02-28T05:32:18.292Z,65.57
2019-02-28T05:34:51.072Z,65.57
2019-02-28T05:37:22.908Z,63.34
2019-02-28T05:39:54.546Z,63.34
2019-02-28T05:42:26.177Z,60.04
2019-02-28T05:44:57.927Z,60.04
2019-02-28T05:47:32.308Z,64.36
2019-02-28T05:50:02.962Z,64.36
2019-02-28T05:52:34.592Z,64.59
2019-02-28T05:55:06.529Z,63.32
2019-02-28T05:57:39.443Z,59.13
2019-02-28T06:00:12.558Z,59.13
2019-02-28T06:02:44.401Z,59.19
2019-02-28T06:05:15.886Z,58.92
2019-02-28T06:07:47.506Z,60.83
2019-02-28T06:10:24.648Z,52.89
2019-02-28T06:12:55.767Z,54.21
2019-02-28T06:15:28.947Z,58.22
2019-02-28T06:18:01.141Z,57.00
2019-02-28T06:20:32.819Z,57.00
2019-02-28T06:23:06.356Z,57.52
2019-02-28T06:25:37.788Z,51.72
2019-02-28T06:28:09.346Z,53.41
2019-02-28T06:30:42.642Z,56.41
2019-02-28T06:33:15.415Z,55.00
2019-02-28T06:35:49.510Z,55.00
2019-02-28T06:38:20.534Z,54.44
2019-02-28T06:40:52.560Z,54.44
2019-02-28T06:43:24.300Z,52.54
2019-02-28T06:45:56.246Z,52.13
2019-02-28T06:48:28.874Z,52.25
2019-02-28T06:51:01.514Z,52.25
2019-02-28T06:53:41.486Z,54.47
2019-02-28T06:56:13.471Z,52.38
2019-02-28T06:58:45.366Z,52.38
2019-02-28T07:01:19.196Z,51.27
2019-02-28T07:03:53.670Z,51.27
2019-02-28T07:06:25.842Z,52.06
2019-02-28T07:09:01.826Z,52.06
2019-02-28T07:11:31.306Z,51.21
2019-02-28T07:14:12.676Z,50.38
2019-02-28T07:16:42.230Z,52.49
2019-02-28T07:19:14.164Z,49.76
2019-02-28T07:21:46.614Z,50.98
2019-02-28T07:24:18.808Z,53.70
2019-02-28T07:26:52.314Z,53.29
2019-02-28T07:29:25.412Z,57.76
2019-02-28T07:32:01.286Z,57.76
2019-02-28T07:34:31.700Z,52.40
2019-02-28T07:37:03.515Z,55.32
2019-02-28T07:39:36.503Z,54.69
2019-02-28T07:42:10.187Z,56.63
2019-02-28T07:44:41.589Z,55.50
2019-02-28T07:47:17.177Z,54.73
2019-02-28T07:49:46.383Z,55.19
2019-02-28T07:52:20.366Z,55.19
2019-02-28T07:54:55.592Z,49.33
2019-02-28T07:57:28.690Z,47.79
2019-02-28T08:00:01.169Z,54.12
2019-02-28T08:02:38.862Z,52.48
2019-02-28T08:05:09.395Z,52.48
2019-02-28T08:07:41.290Z,53.79
2019-02-28T08:10:23.257Z,52.09
2019-02-28T08:13:03.133Z,50.47
2019-02-28T08:15:33.323Z,49.56
2019-02-28T08:18:05.870Z,50.15
2019-02-28T08:20:37.871Z,50.29
2019-02-28T08:23:09.964Z,50.29
2019-02-28T08:25:44.819Z,51.98
2019-02-28T08:28:16.319Z,52.35
2019-02-28T08:30:47.953Z,52.35
2019-02-28T08:33:19.585Z,51.13
2019-02-28T08:35:52.719Z,51.65
2019-02-28T08:38:24.440Z,49.81
2019-02-28T08:40:56.086Z,49.81
2019-02-28T08:43:28.801Z,45.46
2019-02-28T08:46:02.676Z,49.05
2019-02-28T08:48:34.922Z,50.36
2019-02-28T08:51:06.754Z,51.80
2019-02-28T08:53:40.547Z,51.80
2019-02-28T08:56:14.051Z,51.84
2019-02-28T08:58:45.273Z,51.84
2019-02-28T09:01:17.162Z,49.66
2019-02-28T09:03:50.240Z,48.91
2019-02-28T09:06:27.587Z,48.91
2019-02-28T09:09:00.604Z,51.27
2019-02-28T09:11:34.026Z,50.77
2019-02-28T09:14:05.909Z,48.67
2019-02-28T09:16:39.710Z,48.17
2019-02-28T09:19:13.228Z,48.17
2019-02-28T09:21:45.286Z,47.61
2019-02-28T09:24:17.214Z,46.41
2019-02-28T09:26:49.601Z,49.83
2019-02-28T09:29:23.616Z,49.83
2019-02-28T09:31:57.095Z,47.30
2019-02-28T09:34:30.637Z,47.30
2019-02-28T09:37:02.712Z,50.14
2019-02-28T09:39:34.775Z,50.14
2019-02-28T09:42:07.101Z,50.17
2019-02-28T09:44:38.892Z,49.87
2019-02-28T09:47:11.713Z,49.87
2019-02-28T09:49:44.272Z,50.71
2019-02-28T09:52:16.380Z,49.36
2019-02-28T09:54:48.090Z,46.45
2019-02-28T09:57:19.876Z,49.25
2019-02-28T09:59:51.606Z,47.02
2019-02-28T10:02:24.878Z,48.63
2019-02-28T10:04:56.837Z,50.45
2019-02-28T10:07:29.030Z,48.60
2019-02-28T10:10:04.782Z,48.60
2019-02-28T10:12:42.038Z,51.32
2019-02-28T10:15:12.573Z,49.29
2019-02-28T10:17:44.619Z,49.51
2019-02-28T10:20:27.353Z,50.64
2019-02-28T10:23:00.618Z,51.20
2019-02-28T10:25:32.273Z,51.20
2019-02-28T10:28:05.520Z,47.49
2019-02-28T10:30:41.361Z,47.49
2019-02-28T10:33:17.293Z,49.92
2019-02-28T10:35:51.413Z,48.09
2019-02-28T10:38:25.227Z,49.19
2019-02-28T10:40:58.523Z,47.67
2019-02-28T10:43:31.752Z,47.67
2019-02-28T10:46:05.414Z,47.62
2019-02-28T10:48:41.826Z,49.27
2019-02-28T10:51:13.903Z,49.31
2019-02-28T10:53:45.281Z,49.31
2019-02-28T10:56:17.119Z,47.86
2019-02-28T10:58:50.090Z,47.86
2019-02-28T11:01:23.728Z,49.20
2019-02-28T11:03:55.520Z,45.96
2019-02-28T11:06:28.297Z,45.96
2019-02-28T11:09:00.436Z,49.34
2019-02-28T11:11:32.394Z,49.29
2019-02-28T11:14:04.229Z,47.73
2019-02-28T11:16:36.907Z,48.60
2019-02-28T11:19:08.898Z,48.60
2019-02-28T11:21:40.941Z,48.87
2019-02-28T11:24:13.027Z,49.83
2019-02-28T11:26:45.601Z,49.30
2019-02-28T11:29:17.214Z,49.96
2019-02-28T11:31:50.553Z,48.92
2019-02-28T11:34:23.726Z,48.92
2019-02-28T11:36:55.978Z,50.09
2019-02-28T11:39:30.283Z,50.09
2019-02-28T11:42:00.855Z,49.27
2019-02-28T11:44:32.373Z,47.25
2019-02-28T11:47:04.079Z,47.25
2019-02-28T11:49:35.846Z,50.73
2019-02-28T11:52:08.320Z,47.20
2019-02-28T11:54:40.033Z,48.03
2019-02-28T11:57:11.547Z,48.03
2019-02-28T11:59:43.044Z,47.67
2019-02-28T12:02:14.672Z,47.38
2019-02-28T12:04:46.446Z,48.74
2019-02-28T12:07:17.716Z,48.95
2019-02-28T12:09:51.459Z,50.74
2019-02-28T12:12:22.652Z,49.67
2019-02-28T12:14:54.316Z,51.41
2019-02-28T12:17:28.548Z,51.41
2019-02-28T12:19:59.509Z,52.31
2019-02-28T12:22:30.971Z,53.11
2019-02-28T12:25:04.458Z,53.11
2019-02-28T12:27:36.389Z,53.12
2019-02-28T12:30:10.091Z,53.86
2019-02-28T12:32:43.364Z,53.86
2019-02-28T12:35:15.389Z,53.61
2019-02-28T12:37:47.502Z,54.68
2019-02-28T12:40:21.420Z,54.70
2019-02-28T12:42:53.448Z,55.20
2019-02-28T12:45:27.714Z,55.49
2019-02-28T12:48:01.255Z,56.19
2019-02-28T12:50:33.168Z,56.19
2019-02-28T12:53:05.558Z,56.47
2019-02-28T12:55:38.792Z,56.47
2019-02-28T12:58:10.826Z,57.10
2019-02-28T13:00:43.046Z,56.81
2019-02-28T13:03:19.213Z,57.10
2019-02-28T13:05:49.469Z,57.27
2019-02-28T13:08:21.433Z,56.99
2019-02-28T13:10:52.883Z,59.93
2019-02-28T13:13:27.446Z,59.93
2019-02-28T13:15:57.847Z,61.54
2019-02-28T13:18:30.622Z,63.84
2019-02-28T13:21:02.269Z,65.01
2019-02-28T13:23:34.566Z,65.69
2019-02-28T13:26:05.907Z,66.52
2019-02-28T13:28:38.254Z,65.66
2019-02-28T13:31:09.737Z,65.46
2019-02-28T13:33:41.432Z,65.46
2019-02-28T13:36:13.111Z,65.95
2019-02-28T13:38:44.799Z,66.26
2019-02-28T13:41:18.308Z,67.37
2019-02-28T13:43:49.687Z,67.37
2019-02-28T13:46:21.324Z,67.22
2019-02-28T13:48:52.944Z,68.14
2019-02-28T13:51:24.367Z,69.00
2019-02-28T13:53:55.801Z,69.00
2019-02-28T13:56:32.929Z,69.21
2019-02-28T13:59:07.854Z,68.74
2019-02-28T14:01:39.272Z,68.73
2019-02-28T14:04:10.815Z,67.86
2019-02-28T14:06:42.084Z,68.88
2019-02-28T14:09:13.769Z,69.94
2019-02-28T14:11:45.872Z,69.94
2019-02-28T14:14:17.315Z,69.97
2019-02-28T14:16:48.958Z,70.62
2019-02-28T14:19:21.391Z,70.62
2019-02-28T14:21:52.913Z,70.27
2019-02-28T14:24:27.629Z,70.30
2019-02-28T14:26:58.068Z,71.14
2019-02-28T14:29:30.997Z,70.65
2019-02-28T14:32:04.592Z,70.62
2019-02-28T14:34:35.800Z,71.35
2019-02-28T14:37:07.470Z,71.35
2019-02-28T14:39:39.862Z,71.23
2019-02-28T14:42:12.974Z,70.78
2019-02-28T14:44:44.651Z,70.78
2019-02-28T14:47:16.297Z,71.24
2019-02-28T14:49:47.959Z,70.47
2019-02-28T14:52:19.919Z,70.63
2019-02-28T14:54:51.837Z,70.63
2019-02-28T14:57:23.387Z,70.79
2019-02-28T14:59:59.987Z,71.35
2019-02-28T15:02:31.619Z,71.16
2019-02-28T15:05:03.442Z,71.25
2019-02-28T15:07:38.188Z,71.25
2019-02-28T15:10:12.510Z,71.69
2019-02-28T15:12:44.445Z,71.40
2019-02-28T15:15:18.880Z,71.83
2019-02-28T15:17:50.983Z,72.14
2019-02-28T15:20:22.703Z,72.01
2019-02-28T15:22:56.178Z,72.01
2019-02-28T15:25:27.869Z,72.83
2019-02-28T15:27:59.845Z,72.84
2019-02-28T15:30:33.694Z,73.54
2019-02-28T15:33:06.806Z,73.54
2019-02-28T15:35:38.530Z,73.39
2019-02-28T15:38:10.551Z,73.49
2019-02-28T15:40:42.107Z,73.78
2019-02-28T15:43:16.903Z,73.40
2019-02-28T15:45:47.143Z,73.45
2019-02-28T15:48:18.866Z,73.72
2019-02-28T15:50:51.832Z,73.72
2019-02-28T15:53:24.042Z,73.23
2019-02-28T15:55:55.955Z,71.20
2019-02-28T15:58:27.945Z,71.33
2019-02-28T16:00:59.869Z,71.33
2019-02-28T16:03:31.926Z,70.75
2019-02-28T16:06:03.562Z,70.46
2019-02-28T16:08:35.492Z,70.46
2019-02-28T16:11:07.461Z,68.93
2019-02-28T16:13:39.454Z,68.93
2019-02-28T16:16:11.163Z,71.41
2019-02-28T16:18:44.057Z,71.41
2019-02-28T16:21:16.870Z,71.82
2019-02-28T16:23:48.913Z,71.00
2019-02-28T16:26:21.778Z,71.00
2019-02-28T16:28:54.597Z,71.45
2019-02-28T16:31:26.665Z,71.45
2019-02-28T16:34:07.978Z,72.26
2019-02-28T16:36:32.389Z,72.07
2019-02-28T16:39:04.965Z,72.09
2019-02-28T16:41:38.486Z,71.44
2019-02-28T16:44:10.407Z,71.44
2019-02-28T16:46:42.224Z,71.46
2019-02-28T16:49:14.035Z,72.16
2019-02-28T16:51:46.023Z,71.44
2019-02-28T16:54:19.426Z,71.44
2019-02-28T16:56:51.575Z,70.40
2019-02-28T16:59:23.536Z,70.40
2019-02-28T17:01:55.809Z,70.81
2019-02-28T17:04:27.734Z,70.87
2019-02-28T17:06:59.551Z,71.38
2019-02-28T17:09:38.905Z,72.10
2019-02-28T17:12:28.382Z,72.10
2019-02-28T17:15:01.674Z,71.75
2019-02-28T17:17:46.946Z,71.43
2019-02-28T17:20:18.250Z,72.48
2019-02-28T17:22:50.353Z,72.28
2019-02-28T17:25:22.586Z,70.91
2019-02-28T17:28:00.117Z,68.20
2019-02-28T17:30:50.569Z,70.55
2019-02-28T17:33:23.144Z,70.55
2019-02-28T17:35:54.760Z,70.42
2019-02-28T17:38:26.852Z,69.97
2019-02-28T17:40:58.786Z,69.97
2019-02-28T17:43:31.558Z,67.17
2019-02-28T17:46:03.413Z,64.77
2019-02-28T17:48:48.783Z,64.28
2019-02-28T17:51:32.526Z,65.07
2019-02-28T17:54:17.246Z,64.38
2019-02-28T17:57:34.019Z,63.79
2019-02-28T18:00:27.791Z,64.10
2019-02-28T18:03:55.129Z,63.17
2019-02-28T18:07:06.144Z,63.17
2019-02-28T18:09:58.177Z,64.76
2019-02-28T18:13:19.961Z,64.76
2019-02-28T18:16:07.221Z,65.50
2019-02-28T18:19:37.924Z,67.21
2019-02-28T18:22:52.007Z,67.21
2019-02-28T18:26:08.736Z,65.70
2019-02-28T18:29:08.898Z,66.30
2019-02-28T18:31:41.909Z,66.30
2019-02-28T18:34:21.445Z,68.00
2019-02-28T18:36:53.047Z,69.78
2019-02-28T18:39:25.449Z,69.78
2019-02-28T18:41:57.053Z,71.40
2019-02-28T18:44:29.913Z,71.26
2019-02-28T18:47:02.946Z,71.26
2019-02-28T18:49:35.418Z,72.20
2019-02-28T18:52:08.721Z,71.64
2019-02-28T18:54:40.676Z,72.15
2019-02-28T18:57:12.126Z,72.15
2019-02-28T18:59:43.861Z,72.98
2019-02-28T19:02:15.606Z,74.74
2019-02-28T19:04:47.220Z,75.33
2019-02-28T19:07:20.188Z,75.33
2019-02-28T19:09:52.631Z,74.84
2019-02-28T19:12:24.335Z,74.84
2019-02-28T19:14:55.881Z,75.01
2019-02-28T19:17:27.944Z,75.01
2019-02-28T19:20:00.317Z,75.56
2019-02-28T19:22:32.027Z,75.18
2019-02-28T19:25:03.622Z,75.27
2019-02-28T19:27:35.628Z,75.27
2019-02-28T19:30:09.148Z,76.50
2019-02-28T19:32:42.377Z,76.27
2019-02-28T19:35:14.396Z,76.27
2019-02-28T19:37:45.970Z,75.68
2019-02-28T19:40:17.520Z,75.48
2019-02-28T19:42:49.296Z,75.48
2019-02-28T19:45:21.049Z,75.10
2019-02-28T19:47:52.768Z,75.10
2019-02-28T19:50:24.833Z,75.10
2019-02-28T19:52:56.451Z,75.01
2019-02-28T19:55:28.029Z,74.84
2019-02-28T19:57:59.787Z,75.48
2019-02-28T20:00:31.577Z,76.62
2019-02-28T20:03:03.031Z,76.62
2019-02-28T20:05:34.970Z,76.47
2019-02-28T20:08:07.645Z,76.21
2019-02-28T20:10:39.458Z,77.13
2019-02-28T20:13:10.857Z,77.34
2019-02-28T20:15:42.732Z,77.91
2019-02-28T20:18:16.614Z,77.91
2019-02-28T20:20:48.551Z,78.01
2019-02-28T20:23:20.095Z,78.01
2019-02-28T20:25:52.438Z,78.30
2019-02-28T20:28:23.952Z,77.55
2019-02-28T20:30:55.954Z,78.06
2019-02-28T20:33:27.716Z,78.06
2019-02-28T20:35:59.554Z,77.81
2019-02-28T20:38:33.199Z,77.81
2019-02-28T20:41:05.146Z,79.17
2019-02-28T20:43:37.665Z,79.29
2019-02-28T20:46:09.148Z,80.13
2019-02-28T20:48:41.528Z,79.81
2019-02-28T20:51:13.989Z,79.81
2019-02-28T20:53:45.914Z,79.49
2019-02-28T20:56:17.339Z,78.35
2019-02-28T20:58:49.125Z,77.08
2019-02-28T21:01:20.600Z,77.08
2019-02-28T21:03:52.654Z,77.00
2019-02-28T21:06:24.421Z,77.44
2019-02-28T21:08:55.989Z,76.80
2019-02-28T21:11:27.857Z,77.36
2019-02-28T21:14:00.739Z,77.82
2019-02-28T21:16:32.209Z,77.35
2019-02-28T21:19:03.722Z,77.35
2019-02-28T21:21:35.428Z,78.25
2019-02-28T21:24:08.744Z,78.25
2019-02-28T21:26:40.547Z,77.66
2019-02-28T21:29:12.340Z,77.96
2019-02-28T21:31:44.246Z,77.70
2019-02-28T21:34:18.509Z,77.70
2019-02-28T21:36:50.579Z,77.50
2019-02-28T21:39:22.343Z,77.82
2019-02-28T21:41:54.208Z,77.50
2019-02-28T21:44:25.749Z,77.50
2019-02-28T21:46:57.264Z,77.68
2019-02-28T21:49:28.942Z,77.76
2019-02-28T21:52:00.704Z,78.63
2019-02-28T21:54:32.775Z,79.18
2019-02-28T21:57:04.071Z,79.25
2019-02-28T21:59:35.784Z,79.25
2019-02-28T22:02:07.867Z,79.43
2019-02-28T22:04:39.172Z,79.79
2019-02-28T22:07:10.552Z,79.56
2019-02-28T22:09:42.227Z,79.56
2019-02-28T22:12:13.806Z,79.07
2019-02-28T22:14:45.376Z,78.14
2019-02-28T22:17:16.833Z,78.14
2019-02-28T22:19:48.503Z,77.81
2019-02-28T22:22:20.056Z,77.24
2019-02-28T22:24:51.708Z,77.18
2019-02-28T22:27:23.291Z,77.18
2019-02-28T22:29:55.077Z,76.71
2019-02-28T22:32:39.195Z,76.65
2019-02-28T22:35:17.034Z,76.92
2019-02-28T22:37:48.618Z,77.25
2019-02-28T22:40:20.049Z,77.25
2019-02-28T22:42:51.694Z,77.35
2019-02-28T22:45:23.133Z,76.95
2019-02-28T22:47:54.705Z,77.19
2019-02-28T22:50:26.303Z,77.19
2019-02-28T22:52:58.179Z,77.22
2019-02-28T22:55:29.819Z,77.22
2019-02-28T22:58:03.132Z,76.34
2019-02-28T23:01:06.334Z,76.34
2019-02-28T23:03:39.799Z,78.11
2019-02-28T23:06:11.547Z,77.73
2019-02-28T23:08:44.267Z,78.16
2019-02-28T23:11:16.780Z,78.16
2019-02-28T23:13:48.590Z,78.73
2019-02-28T23:16:20.717Z,78.73
2019-02-28T23:18:52.454Z,78.43
2019-02-28T23:21:24.186Z,78.38
2019-02-28T23:23:55.566Z,78.38
2019-02-28T23:26:30.861Z,77.49
2019-02-28T23:29:12.527Z,77.49
2019-02-28T23:32:24.380Z,77.67
2019-02-28T23:34:56.966Z,77.21
2019-02-28T23:37:29.054Z,77.38
2019-02-28T23:40:01.302Z,77.52
2019-02-28T23:42:34.041Z,77.52
2019-02-28T23:45:05.530Z,77.70
2019-02-28T23:47:37.599Z,77.58
2019-02-28T23:50:09.825Z,77.89
2019-02-28T23:52:41.686Z,77.89
2019-02-28T23:55:13.407Z,79.04
2019-02-28T23:57:45.028Z,79.94
